Terminal Aerodrome Forecast
Issued by NWS Blacksburg, VA

Current Version | Previous Version | Graphics & Text | Print | Product List | Glossary On
Versions: 1 2 3 4 5 6 7 8 9 10 11 12 13 14 15 16 17 18 19 20 21 22 23 24 25 26 27 28
000
FTUS41 KRNK 260540
TAFBLF
TAF
KBLF 260540Z 2606/2706 16006KT P6SM SCT200
     FM261200 16009KT P6SM VCSH BKN045
     FM261600 16010KT P6SM -SHRA BKN020
     FM262000 17011KT P6SM -SHRA BKN030
     FM270200 17008KT P6SM BKN025=

USA.gov is the U.S. government's official web portal to all federal, state and local government web resources and services.